Time;durP1;ratioP1;P1;durP2;ratioP2;P2;SDS_P1;SDS_P2;PMS_P1;PMS_P2;Temp;Humidity;BMP_temperature;BMP_pressure;BME280_temperature;BME280_humidity;BME280_pressure;Samples;Min_cycle;Max_cycle;Signal;HPM_P1;HPM_P2
2021/11/28 00:02:27;;;;;;;10.40;2.17;;;21.80;80.40;;;;;;5035923;28;20028;-71
2021/11/28 00:04:54;;;;;;;11.02;2.47;;;21.90;80.50;;;;;;5040297;28;20104;-71
2021/11/28 00:07:28;;;;;;;10.30;2.83;;;21.80;80.40;;;;;;5035256;28;20022;-84
2021/11/28 00:10:05;;;;;;;5.63;1.83;;;21.80;80.50;;;;;;5037585;28;20024;-76
2021/11/28 00:15:35;;;;;;;6.72;2.17;;;21.80;80.60;;;;;;4958186;28;20059;-80
2021/11/28 00:18:01;;;;;;;8.07;2.13;;;21.80;80.70;;;;;;5023187;28;20029;-76
2021/11/28 00:20:28;;;;;;;6.53;2.05;;;21.80;80.70;;;;;;5040760;28;20032;-71
2021/11/28 00:22:54;;;;;;;7.63;2.20;;;21.80;80.80;;;;;;5044517;28;20388;-79
2021/11/28 00:25:22;;;;;;;8.07;2.45;;;21.80;80.80;;;;;;5039038;28;20028;-79
2021/11/28 00:27:50;;;;;;;9.07;3.38;;;21.80;80.90;;;;;;5043635;28;20644;-72
2021/11/28 00:30:23;;;;;;;10.40;2.50;;;21.80;81.00;;;;;;5043124;28;20126;-86
2021/11/28 00:32:50;;;;;;;5.10;2.30;;;21.80;81.00;;;;;;5042502;28;20021;-71
2021/11/28 00:35:16;;;;;;;9.88;2.70;;;21.80;81.10;;;;;;5041807;28;20515;-71
2021/11/28 00:37:43;;;;;;;7.65;2.47;;;21.80;81.20;;;;;;5031372;28;20372;-79
2021/11/28 00:40:49;;;;;;;10.20;3.10;;;21.80;81.30;;;;;;5048039;28;20025;-74
2021/11/28 00:43:35;;;;;;;;;;;21.80;81.40;;;;;;5042797;28;20048;-72
2021/11/28 00:46:41;;;;;;;7.50;3.05;;;21.70;81.40;;;;;;5028483;28;19928;-71
2021/11/28 00:49:14;;;;;;;8.65;2.75;;;21.80;81.50;;;;;;5027521;28;20017;-75
2021/11/28 00:51:52;;;;;;;9.38;2.83;;;21.70;81.50;;;;;;5019770;28;20469;-75
2021/11/28 00:54:19;;;;;;;10.05;3.30;;;21.70;81.50;;;;;;5027280;28;20037;-71
2021/11/28 00:56:45;;;;;;;6.65;2.85;;;21.70;82.20;;;;;;5023691;28;20017;-78
2021/11/28 00:59:12;;;;;;;6.75;2.60;;;21.70;81.60;;;;;;5023874;28;20017;-71
2021/11/28 01:01:39;;;;;;;4.45;2.33;;;21.70;81.60;;;;;;5021508;28;20032;-74
2021/11/28 01:04:06;;;;;;;11.85;3.58;;;21.70;81.70;;;;;;5008277;28;20032;-72
2021/11/28 01:06:32;;;;;;;9.02;2.80;;;21.70;81.70;;;;;;5011376;28;20387;-71
2021/11/28 01:08:59;;;;;;;9.05;3.42;;;21.70;81.70;;;;;;5021215;28;20029;-74
2021/11/28 01:11:26;;;;;;;8.57;2.30;;;21.70;81.80;;;;;;5023266;28;20037;-76
2021/11/28 01:13:53;;;;;;;15.57;2.65;;;21.70;81.80;;;;;;5023193;28;20025;-75
2021/11/28 01:16:21;;;;;;;7.63;2.13;;;21.70;81.90;;;;;;5017881;28;20172;-71
2021/11/28 01:18:48;;;;;;;11.32;2.55;;;21.70;82.00;;;;;;5022383;28;20028;-76
2021/11/28 01:21:15;;;;;;;8.10;2.63;;;21.70;82.00;;;;;;5022195;28;20021;-72
2021/11/28 01:23:42;;;;;;;11.63;2.78;;;21.70;82.00;;;;;;5023359;28;20029;-72
2021/11/28 01:26:09;;;;;;;6.60;2.10;;;21.70;82.10;;;;;;5024610;28;20799;-74
2021/11/28 01:28:35;;;;;;;9.18;2.75;;;21.70;82.10;;;;;;5023591;28;20014;-72
2021/11/28 01:31:02;;;;;;;9.90;3.03;;;21.70;82.10;;;;;;5022933;28;20068;-72
2021/11/28 01:33:28;;;;;;;6.05;2.33;;;21.70;82.10;;;;;;5019107;28;20018;-80
2021/11/28 01:35:55;;;;;;;9.18;2.70;;;21.70;82.10;;;;;;5020863;28;20036;-73
2021/11/28 01:38:21;;;;;;;5.63;1.80;;;21.70;82.10;;;;;;5021396;28;20032;-76
2021/11/28 01:40:50;;;;;;;6.72;1.95;;;21.70;82.70;;;;;;5026719;28;20010;-86
2021/11/28 01:43:18;;;;;;;7.55;2.00;;;21.70;82.00;;;;;;5022212;28;20037;-74
2021/11/28 01:45:48;;;;;;;7.47;3.05;;;21.60;81.90;;;;;;5042121;28;20037;-72
2021/11/28 01:48:16;;;;;;;6.45;2.42;;;21.60;82.00;;;;;;5043254;28;20103;-79
2021/11/28 01:50:46;;;;;;;7.07;2.28;;;21.60;81.90;;;;;;5036939;28;20013;-72
2021/11/28 01:53:17;;;;;;;6.50;2.20;;;21.60;81.90;;;;;;5044074;28;20523;-76
2021/11/28 01:55:44;;;;;;;11.60;2.47;;;21.60;81.80;;;;;;5037473;28;20033;-72
2021/11/28 01:58:12;;;;;;;8.18;2.65;;;21.60;81.80;;;;;;5041531;28;20028;-78
2021/11/28 02:00:46;;;;;;;6.07;1.80;;;21.60;81.80;;;;;;5021636;28;20384;-75
2021/11/28 02:03:15;;;;;;;10.45;2.75;;;21.60;81.80;;;;;;5040126;28;20036;-72
2021/11/28 02:05:46;;;;;;;5.22;2.33;;;21.60;81.80;;;;;;5042082;28;20490;-77
2021/11/28 02:08:13;;;;;;;7.57;2.42;;;21.60;81.80;;;;;;5041899;28;20028;-71
2021/11/28 02:10:40;;;;;;;9.13;2.15;;;21.60;81.90;;;;;;5038106;28;20484;-79
2021/11/28 02:13:06;;;;;;;7.93;2.88;;;21.60;81.90;;;;;;5038719;28;20022;-78
2021/11/28 02:15:33;;;;;;;16.45;3.33;;;21.60;81.90;;;;;;5044201;28;20033;-72
2021/11/28 02:18:00;;;;;;;11.82;3.45;;;21.60;82.00;;;;;;5041158;28;20025;-72
2021/11/28 02:20:30;;;;;;;8.05;2.55;;;21.60;81.90;;;;;;5040174;28;20025;-72
2021/11/28 02:22:57;;;;;;;8.07;2.58;;;21.50;82.00;;;;;;5039661;28;20016;-71
2021/11/28 02:25:25;;;;;;;6.75;1.90;;;21.60;82.00;;;;;;5046945;28;20022;-76
2021/11/28 02:27:56;;;;;;;5.15;2.17;;;21.50;82.10;;;;;;5036081;28;21498;-75
2021/11/28 02:30:23;;;;;;;4.82;1.60;;;21.50;82.20;;;;;;5039457;28;20021;-71
2021/11/28 02:32:50;;;;;;;12.07;2.10;;;21.50;82.30;;;;;;5040514;28;20108;-71
2021/11/28 02:35:18;;;;;;;4.68;1.92;;;21.50;82.40;;;;;;5039308;28;20106;-71
2021/11/28 02:37:46;;;;;;;6.40;1.75;;;21.50;82.50;;;;;;5041610;28;20201;-71
2021/11/28 02:40:15;;;;;;;4.75;1.85;;;21.50;82.60;;;;;;5038480;28;20029;-71
2021/11/28 02:42:42;;;;;;;2.70;1.30;;;21.50;82.60;;;;;;5041674;28;20017;-71
2021/11/28 02:45:11;;;;;;;7.25;2.03;;;21.40;82.70;;;;;;5043339;28;20052;-75
2021/11/28 02:47:37;;;;;;;3.58;1.45;;;21.50;82.80;;;;;;5038816;28;20017;-71
2021/11/28 02:50:05;;;;;;;6.38;1.42;;;21.50;82.90;;;;;;5037310;28;20102;-71
2021/11/28 02:52:32;;;;;;;5.18;1.27;;;21.50;82.90;;;;;;5042396;28;20025;-72
2021/11/28 02:54:59;;;;;;;3.42;0.98;;;21.50;83.00;;;;;;5041979;28;20037;-72
2021/11/28 02:57:26;;;;;;;4.75;1.13;;;21.50;83.10;;;;;;5038719;28;20044;-72
2021/11/28 02:59:52;;;;;;;3.05;1.13;;;21.40;83.00;;;;;;5041275;28;20017;-72
2021/11/28 03:02:19;;;;;;;3.53;1.35;;;21.40;83.10;;;;;;5034601;28;21250;-71
2021/11/28 03:04:46;;;;;;;4.38;1.55;;;21.40;83.20;;;;;;5041456;28;20017;-72
2021/11/28 03:07:20;;;;;;;2.25;0.88;;;21.40;83.20;;;;;;5035709;28;20022;-71
2021/11/28 03:09:46;;;;;;;3.33;0.95;;;21.40;83.20;;;;;;5037776;28;20082;-72
2021/11/28 03:12:13;;;;;;;3.45;1.40;;;21.40;83.30;;;;;;5041384;28;20128;-76
2021/11/28 03:14:41;;;;;;;4.82;2.05;;;21.40;83.40;;;;;;5044114;28;20033;-72
2021/11/28 03:17:08;;;;;;;7.45;1.63;;;21.40;83.40;;;;;;5042296;28;20021;-75
2021/11/28 03:19:34;;;;;;;6.10;1.50;;;21.40;83.50;;;;;;5040321;28;20036;-72
2021/11/28 03:22:01;;;;;;;4.93;1.65;;;21.40;83.60;;;;;;5039294;28;20388;-72
2021/11/28 03:24:28;;;;;;;2.60;1.40;;;21.40;83.60;;;;;;5040626;28;20020;-71
2021/11/28 03:26:54;;;;;;;5.07;1.40;;;21.40;83.70;;;;;;5037340;28;20029;-72
2021/11/28 03:29:23;;;;;;;7.93;2.28;;;21.40;83.70;;;;;;5039281;28;20582;-72
2021/11/28 03:31:53;;;;;;;5.25;1.95;;;21.40;83.80;;;;;;5044336;28;20020;-72
2021/11/28 03:34:20;;;;;;;5.93;2.13;;;21.40;83.80;;;;;;5044161;28;20021;-75
2021/11/28 03:36:51;;;;;;;4.75;1.80;;;21.40;83.90;;;;;;5038918;28;20017;-72
2021/11/28 03:39:20;;;;;;;6.78;2.13;;;21.40;84.00;;;;;;5040801;28;20049;-72
2021/11/28 03:41:49;;;;;;;4.78;1.80;;;21.40;84.00;;;;;;5039370;28;20024;-70
2021/11/28 03:44:17;;;;;;;4.18;2.05;;;21.40;84.10;;;;;;5038903;28;20044;-74
2021/11/28 03:46:44;;;;;;;10.02;2.53;;;21.40;84.20;;;;;;5042711;28;20021;-70
2021/11/28 03:49:11;;;;;;;14.80;4.65;;;21.40;84.20;;;;;;5042053;28;20108;-76
2021/11/28 03:51:37;;;;;;;8.13;3.83;;;21.40;84.20;;;;;;5039555;28;20024;-77
2021/11/28 03:54:04;;;;;;;11.43;3.80;;;21.40;84.30;;;;;;5042733;28;20021;-71
2021/11/28 03:56:31;;;;;;;5.10;2.70;;;21.40;84.30;;;;;;5041918;28;20617;-71
2021/11/28 03:58:58;;;;;;;7.00;3.03;;;21.40;84.40;;;;;;5046324;28;20020;-74
2021/11/28 04:01:25;;;;;;;9.20;2.63;;;21.40;84.50;;;;;;5047628;28;20021;-74
2021/11/28 04:03:52;;;;;;;6.75;2.30;;;21.40;84.60;;;;;;5025656;28;20031;-70
2021/11/28 04:06:21;;;;;;;7.53;2.53;;;21.40;84.60;;;;;;5039455;28;20017;-71
2021/11/28 04:08:49;;;;;;;7.20;3.00;;;21.40;84.70;;;;;;5044654;28;20009;-72
2021/11/28 04:11:16;;;;;;;7.55;2.47;;;21.40;84.80;;;;;;5040373;28;20496;-75
2021/11/28 04:13:43;;;;;;;6.22;2.13;;;21.40;84.80;;;;;;5040582;28;20025;-69
2021/11/28 04:16:11;;;;;;;4.45;1.77;;;21.40;84.90;;;;;;5046074;28;20037;-69
2021/11/28 04:18:39;;;;;;;5.72;1.85;;;21.40;85.00;;;;;;5041547;28;20009;-69
2021/11/28 04:21:06;;;;;;;11.27;2.75;;;21.40;85.00;;;;;;5041905;28;20028;-71
2021/11/28 04:23:32;;;;;;;15.52;3.35;;;21.40;85.00;;;;;;5043267;28;20036;-74
2021/11/28 04:25:59;;;;;;;8.23;2.10;;;21.40;85.10;;;;;;5046392;28;20115;-73
2021/11/28 04:28:25;;;;;;;4.03;1.70;;;21.40;85.20;;;;;;5042750;28;20033;-79
2021/11/28 04:30:52;;;;;;;6.50;1.90;;;21.40;85.30;;;;;;5041084;28;20096;-73
2021/11/28 04:33:21;;;;;;;4.28;1.85;;;21.40;85.30;;;;;;5042830;28;20057;-70
2021/11/28 04:35:48;;;;;;;7.38;1.40;;;21.40;85.40;;;;;;5041252;28;20105;-79
2021/11/28 04:38:15;;;;;;;4.00;1.27;;;21.40;85.40;;;;;;5043002;28;20021;-70
2021/11/28 04:40:42;;;;;;;3.55;1.25;;;21.40;85.40;;;;;;5043456;28;20032;-80
2021/11/28 04:43:08;;;;;;;2.67;1.38;;;21.40;85.50;;;;;;5038643;28;20030;-73
2021/11/28 04:45:35;;;;;;;4.13;0.80;;;21.40;85.40;;;;;;5044435;28;20041;-77
2021/11/28 04:48:01;;;;;;;5.22;1.67;;;21.40;85.40;;;;;;5039604;28;20024;-72
2021/11/28 04:50:28;;;;;;;2.08;0.60;;;21.40;85.50;;;;;;5039899;28;20029;-73
2021/11/28 04:52:54;;;;;;;1.25;0.65;;;21.40;85.50;;;;;;5044156;28;20071;-69
2021/11/28 04:55:21;;;;;;;1.02;0.35;;;21.40;85.70;;;;;;5041618;28;20033;-76
2021/11/28 04:57:47;;;;;;;2.90;1.55;;;21.40;85.70;;;;;;5021600;28;20025;-72
2021/11/28 05:00:24;;;;;;;3.30;2.92;;;21.40;85.70;;;;;;5040027;28;20067;-80
2021/11/28 05:02:52;;;;;;;3.67;2.13;;;21.40;85.90;;;;;;5038182;28;20035;-70
2021/11/28 05:05:19;;;;;;;3.42;1.88;;;21.40;85.90;;;;;;5041016;28;20434;-75
2021/11/28 05:07:45;;;;;;;1.73;1.48;;;21.40;85.90;;;;;;5040570;28;20025;-70
2021/11/28 05:10:12;;;;;;;5.13;1.95;;;21.40;85.80;;;;;;5034018;28;20016;-76
2021/11/28 05:12:40;;;;;;;4.18;1.33;;;21.40;85.70;;;;;;5039894;28;20021;-70
2021/11/28 05:15:07;;;;;;;3.65;1.63;;;21.40;85.70;;;;;;5035811;28;20121;-71
2021/11/28 05:18:13;;;;;;;2.50;1.60;;;21.40;85.60;;;;;;5049013;28;20021;-70
2021/11/28 05:20:39;;;;;;;1.45;0.93;;;21.40;85.60;;;;;;5040673;28;20020;-69
2021/11/28 05:23:06;;;;;;;6.90;3.80;;;21.40;85.60;;;;;;5041856;28;20125;-66
2021/11/28 05:25:32;;;;;;;13.98;8.85;;;21.40;85.50;;;;;;5043363;28;20033;-67
2021/11/28 05:27:59;;;;;;;19.92;17.38;;;21.40;85.50;;;;;;5039490;28;20072;-67
2021/11/28 05:30:25;;;;;;;15.93;14.32;;;21.40;85.50;;;;;;5043417;28;20052;-68
2021/11/28 05:32:52;;;;;;;10.57;8.48;;;21.40;85.50;;;;;;5046407;28;20029;-71
2021/11/28 05:35:18;;;;;;;6.65;6.05;;;21.40;85.50;;;;;;5045291;28;20033;-68
2021/11/28 05:37:46;;;;;;;5.68;4.43;;;21.40;85.40;;;;;;5041923;28;20029;-69
2021/11/28 05:40:13;;;;;;;3.13;2.90;;;21.40;85.50;;;;;;5044745;28;20017;-67
2021/11/28 05:42:45;;;;;;;2.00;1.88;;;21.40;85.50;;;;;;5041712;28;20048;-69
2021/11/28 05:45:12;;;;;;;1.98;1.48;;;21.40;85.50;;;;;;5041519;28;20052;-69
2021/11/28 05:47:41;;;;;;;1.30;0.93;;;21.40;85.50;;;;;;5045960;28;20017;-70
2021/11/28 05:50:08;;;;;;;2.15;0.95;;;21.40;85.50;;;;;;5036245;28;20017;-70
2021/11/28 05:52:36;;;;;;;2.45;1.10;;;21.40;85.60;;;;;;5032858;28;20017;-79
2021/11/28 05:55:05;;;;;;;1.15;0.90;;;21.40;85.50;;;;;;5037329;28;20416;-72
2021/11/28 05:57:31;;;;;;;2.38;1.85;;;21.40;85.50;;;;;;5034907;28;20522;-74
2021/11/28 05:59:58;;;;;;;10.38;6.72;;;21.40;85.50;;;;;;5041794;28;20021;-74
2021/11/28 06:02:24;;;;;;;10.48;8.98;;;21.40;85.60;;;;;;5030273;28;20044;-72
2021/11/28 06:04:51;;;;;;;7.90;6.53;;;21.40;85.60;;;;;;5035267;28;20360;-77
2021/11/28 06:07:17;;;;;;;6.15;3.67;;;21.40;85.70;;;;;;5035440;28;20037;-71
2021/11/28 06:09:44;;;;;;;6.45;3.67;;;21.40;85.80;;;;;;5040510;28;20017;-74
2021/11/28 06:12:10;;;;;;;2.90;2.55;;;21.40;85.90;;;;;;5036540;28;20025;-68
2021/11/28 06:14:37;;;;;;;1.63;1.52;;;21.40;85.90;;;;;;5035459;28;20041;-68
2021/11/28 06:17:05;;;;;;;1.40;1.30;;;21.50;86.10;;;;;;5035274;28;20056;-77
2021/11/28 06:19:32;;;;;;;1.65;1.13;;;21.50;86.10;;;;;;5038154;28;20031;-75
2021/11/28 06:21:58;;;;;;;2.38;0.82;;;21.50;86.20;;;;;;5038100;28;20368;-78
2021/11/28 06:24:25;;;;;;;1.58;1.25;;;21.50;86.30;;;;;;5038815;28;20030;-77
2021/11/28 06:26:52;;;;;;;1.85;1.20;;;21.50;86.30;;;;;;5035879;28;20482;-77
2021/11/28 06:29:18;;;;;;;1.58;0.80;;;21.50;86.40;;;;;;5034141;28;20111;-68
2021/11/28 06:31:45;;;;;;;3.05;1.33;;;21.50;86.50;;;;;;5010926;28;20021;-69
2021/11/28 06:34:11;;;;;;;4.15;2.53;;;21.50;86.50;;;;;;5036448;28;20425;-70
2021/11/28 06:36:38;;;;;;;40.15;32.50;;;21.50;86.50;;;;;;5038275;28;20029;-73
2021/11/28 06:39:05;;;;;;;37.47;29.67;;;21.50;86.60;;;;;;5038516;28;20025;-69
2021/11/28 06:42:11;;;;;;;30.67;22.17;;;21.50;86.70;;;;;;5032993;28;20022;-68
2021/11/28 06:45:17;;;;;;;30.00;26.30;;;21.60;86.80;;;;;;5037254;28;20153;-70
2021/11/28 06:47:43;;;;;;;28.77;25.73;;;21.60;86.90;;;;;;5035810;28;20041;-69
2021/11/28 06:50:14;;;;;;;30.13;26.33;;;21.60;86.90;;;;;;5030093;28;20030;-69
2021/11/28 06:52:41;;;;;;;24.75;22.15;;;21.60;86.90;;;;;;5031543;28;20021;-70
2021/11/28 06:55:08;;;;;;;19.77;15.20;;;21.60;86.90;;;;;;5034436;28;20033;-75
2021/11/28 06:57:34;;;;;;;15.20;11.15;;;21.70;87.00;;;;;;5033940;28;20024;-74
2021/11/28 07:00:01;;;;;;;9.25;7.70;;;21.60;87.00;;;;;;5030474;28;20070;-73
2021/11/28 07:02:28;;;;;;;6.40;5.38;;;21.70;87.10;;;;;;5034762;28;20068;-73
2021/11/28 07:05:05;;;;;;;7.50;4.15;;;21.60;87.00;;;;;;5033158;28;20048;-75
2021/11/28 07:07:34;;;;;;;4.47;3.17;;;21.60;87.00;;;;;;5023345;28;20554;-72
2021/11/28 07:10:02;;;;;;;4.10;2.95;;;21.60;87.10;;;;;;5033753;28;20328;-72
2021/11/28 07:12:28;;;;;;;4.30;2.40;;;21.70;87.20;;;;;;5030012;28;20518;-72
2021/11/28 07:14:59;;;;;;;5.25;2.70;;;21.70;87.20;;;;;;5030610;28;20365;-74
2021/11/28 07:17:26;;;;;;;4.60;1.88;;;21.70;87.30;;;;;;5034750;28;20013;-73
2021/11/28 07:19:52;;;;;;;4.82;2.55;;;21.60;87.30;;;;;;5032141;28;20540;-73
2021/11/28 07:22:19;;;;;;;5.53;1.90;;;21.70;87.40;;;;;;5034727;28;20511;-75
2021/11/28 07:24:45;;;;;;;4.53;1.98;;;21.70;87.40;;;;;;5031083;28;20048;-71
2021/11/28 07:27:12;;;;;;;3.80;2.03;;;21.70;87.40;;;;;;5033463;28;20028;-72
2021/11/28 07:29:38;;;;;;;5.93;2.60;;;21.70;87.40;;;;;;5032985;28;20021;-73
2021/11/28 07:32:06;;;;;;;6.65;3.08;;;21.70;87.40;;;;;;5030453;28;20025;-75
2021/11/28 07:34:32;;;;;;;6.30;2.25;;;21.70;87.40;;;;;;5032748;28;20029;-73
2021/11/28 07:36:59;;;;;;;7.68;2.65;;;21.70;87.40;;;;;;5031043;28;20036;-71
2021/11/28 07:39:26;;;;;;;7.45;2.80;;;21.80;87.40;;;;;;5027109;28;21104;-73
2021/11/28 07:41:53;;;;;;;7.03;3.00;;;21.70;87.40;;;;;;5031925;28;20044;-71
2021/11/28 07:44:20;;;;;;;9.57;3.22;;;21.70;87.40;;;;;;5028931;28;20131;-71
2021/11/28 07:46:46;;;;;;;7.20;3.30;;;21.70;87.30;;;;;;5034457;28;20028;-71
2021/11/28 07:49:13;;;;;;;12.77;5.00;;;21.70;87.30;;;;;;5031759;28;20398;-70
2021/11/28 07:51:39;;;;;;;7.50;3.25;;;21.70;87.30;;;;;;5033260;28;20036;-73
2021/11/28 07:54:07;;;;;;;8.18;4.18;;;21.70;87.20;;;;;;5031763;28;20100;-71
2021/11/28 07:56:39;;;;;;;8.52;3.67;;;21.70;87.70;;;;;;5033496;28;20076;-71
2021/11/28 07:59:05;;;;;;;11.55;4.53;;;21.70;87.10;;;;;;5036599;28;20033;-71
2021/11/28 08:01:33;;;;;;;12.80;3.67;;;21.70;87.00;;;;;;5037765;28;20105;-71
2021/11/28 08:03:59;;;;;;;9.50;4.47;;;21.70;86.90;;;;;;5023198;28;20431;-71
2021/11/28 08:06:26;;;;;;;9.40;3.15;;;21.70;86.80;;;;;;5021852;28;20816;-72
2021/11/28 08:08:52;;;;;;;10.40;3.17;;;21.70;86.70;;;;;;5032438;28;20029;-73
2021/11/28 08:11:20;;;;;;;3.58;1.98;;;21.70;86.60;;;;;;5033220;28;20053;-73
2021/11/28 08:13:49;;;;;;;4.25;1.65;;;21.70;86.40;;;;;;5031271;28;20380;-74
2021/11/28 08:16:16;;;;;;;3.53;1.75;;;21.80;86.40;;;;;;5033373;28;20045;-72
2021/11/28 08:18:43;;;;;;;3.47;1.40;;;21.70;86.30;;;;;;5037473;28;20036;-75
2021/11/28 08:21:17;;;;;;;4.80;1.25;;;21.70;86.90;;;;;;5035858;28;20026;-74
2021/11/28 08:24:23;;;;;;;5.05;1.73;;;21.80;86.40;;;;;;5023324;28;20030;-72
2021/11/28 08:27:10;;;;;;;3.58;1.70;;;21.80;86.40;;;;;;5032223;28;20120;-70
2021/11/28 08:30:17;;;;;;;3.35;1.20;;;21.80;86.50;;;;;;5030238;28;20498;-71
2021/11/28 08:33:23;;;;;;;2.63;1.27;;;21.80;86.50;;;;;;5031823;28;20025;-72
2021/11/28 08:36:29;;;;;;;1.42;1.10;;;21.90;86.60;;;;;;5032593;28;20186;-72
2021/11/28 08:39:35;;;;;;;1.80;1.13;;;21.90;86.60;;;;;;5038756;28;20028;-72
2021/11/28 08:42:07;;;;;;;1.42;0.88;;;22.00;86.70;;;;;;5045690;28;20047;-72
2021/11/28 08:45:13;;;;;;;2.13;0.85;;;22.00;86.60;;;;;;5027933;28;20530;-71
2021/11/28 08:48:19;;;;;;;3.00;1.05;;;22.10;86.60;;;;;;5044773;28;20020;-71
2021/11/28 08:51:26;;;;;;;1.35;0.73;;;22.10;86.50;;;;;;5039274;28;20024;-72
2021/11/28 08:54:13;;;;;;;;;;;22.20;86.50;;;;;;5044785;28;20017;-71
2021/11/28 08:57:19;;;;;;;2.63;0.93;;;22.20;86.30;;;;;;5046646;28;19986;-71
2021/11/28 09:00:25;;;;;;;2.17;0.88;;;22.20;86.00;;;;;;5044451;28;20092;-72
2021/11/28 09:03:11;;;;;;;;;;;22.20;85.70;;;;;;5042274;28;20022;-74
2021/11/28 09:06:17;;;;;;;4.85;1.17;;;22.30;85.50;;;;;;5041836;28;19952;-76
2021/11/28 09:09:23;;;;;;;2.03;1.10;;;22.30;85.30;;;;;;5044048;28;20013;-74
2021/11/28 09:12:30;;;;;;;2.65;1.33;;;22.40;84.90;;;;;;5042814;28;20427;-75
2021/11/28 09:15:20;;;;;;;4.20;1.35;;;22.50;85.00;;;;;;5041362;28;20683;-76
2021/11/28 09:18:33;;;;;;;3.50;1.02;;;22.50;84.50;;;;;;5010756;28;20034;-76
2021/11/28 09:21:39;;;;;;;4.32;0.88;;;22.60;84.30;;;;;;5041138;28;20021;-72
2021/11/28 09:24:47;;;;;;;4.65;0.77;;;22.60;84.00;;;;;;5038838;28;20057;-73
2021/11/28 09:27:21;;;;;;;2.50;1.13;;;22.70;83.90;;;;;;5042687;28;20053;-71
2021/11/28 09:29:48;;;;;;;4.23;1.00;;;22.80;83.90;;;;;;5030704;28;20502;-71
2021/11/28 09:32:54;;;;;;;2.85;1.05;;;22.80;83.80;;;;;;5043264;28;20782;-69
2021/11/28 09:36:00;;;;;;;4.38;0.88;;;22.90;83.60;;;;;;5041472;28;20037;-71
2021/11/28 09:39:06;;;;;;;3.35;0.90;;;23.00;83.40;;;;;;5044387;28;20017;-73
2021/11/28 09:41:52;;;;;;;;;;;23.10;82.90;;;;;;5036411;28;20531;-72
2021/11/28 09:44:29;;;;;;;1.92;0.75;;;23.10;82.40;;;;;;5037368;28;19913;-70
2021/11/28 09:47:35;;;;;;;2.10;0.90;;;23.20;82.10;;;;;;5024420;28;20017;-72
2021/11/28 09:50:41;;;;;;;2.22;0.90;;;23.20;81.90;;;;;;5041208;28;20489;-70
2021/11/28 09:53:47;;;;;;;0.90;0.80;;;23.30;81.70;;;;;;5041034;28;20020;-72
2021/11/28 09:56:14;;;;;;;2.25;1.30;;;23.30;81.40;;;;;;5042686;28;20045;-70
2021/11/28 09:58:44;;;;;;;3.85;1.20;;;23.30;81.20;;;;;;5046406;28;20024;-70
2021/11/28 10:01:53;;;;;;;2.45;1.35;;;23.30;81.00;;;;;;5027058;28;20087;-72
2021/11/28 10:04:59;;;;;;;4.75;2.38;;;23.30;81.00;;;;;;5045907;28;20060;-75
2021/11/28 10:07:26;;;;;;;;;;;23.40;81.10;;;;;;5043590;28;20046;-78
2021/11/28 10:10:32;;;;;;;3.72;1.77;;;23.50;81.40;;;;;;5044502;28;19905;-73
2021/11/28 10:13:38;;;;;;;3.60;1.83;;;23.50;81.30;;;;;;5044117;28;20022;-85
2021/11/28 10:16:44;;;;;;;4.90;2.13;;;23.60;81.30;;;;;;5042849;28;20075;-73
2021/11/28 10:19:10;;;;;;;;;;;23.70;81.80;;;;;;5045836;28;20024;-77
2021/11/28 10:22:16;;;;;;;7.80;2.22;;;23.70;81.20;;;;;;5041745;28;19957;-75
2021/11/28 10:25:15;;;;;;;;;;;23.80;81.10;;;;;;5041470;28;20018;-78
2021/11/28 10:28:22;;;;;;;12.20;2.03;;;23.90;81.00;;;;;;5039440;28;21888;-71
2021/11/28 10:31:28;;;;;;;7.05;1.73;;;24.00;80.60;;;;;;5035738;28;20116;-71
2021/11/28 10:34:14;;;;;;;;;;;24.10;80.40;;;;;;5034908;28;20052;-73
2021/11/28 10:36:40;;;;;;;10.23;1.92;;;24.10;80.20;;;;;;5033731;28;20307;-77
2021/11/28 10:39:36;;;;;;;7.00;1.40;;;24.20;79.90;;;;;;5033125;28;20035;-72
2021/11/28 10:42:02;;;;;;;8.88;1.85;;;24.30;79.50;;;;;;5030608;28;20039;-74
2021/11/28 10:44:58;;;;;;;6.38;1.60;;;24.30;79.30;;;;;;5033151;28;20098;-72
2021/11/28 10:48:07;;;;;;;4.68;1.55;;;24.30;79.20;;;;;;5023583;28;20025;-71
2021/11/28 10:51:13;;;;;;;5.68;1.98;;;24.40;79.20;;;;;;5028234;28;20017;-74
2021/11/28 10:53:59;;;;;;;;;;;24.40;78.70;;;;;;5033039;28;20045;-78
2021/11/28 10:57:05;;;;;;;5.13;1.80;;;24.50;78.50;;;;;;5032974;28;19991;-72
2021/11/28 10:59:51;;;;;;;;;;;24.60;78.30;;;;;;5033244;28;20680;-71
2021/11/28 11:02:50;;;;;;;7.38;2.10;;;24.60;77.80;;;;;;5032795;28;20395;-68
2021/11/28 11:05:58;;;;;;;8.43;1.90;;;24.60;77.30;;;;;;5031846;28;20021;-70
2021/11/28 11:09:04;;;;;;;5.25;1.60;;;24.60;77.30;;;;;;5036804;28;20490;-69
2021/11/28 11:11:51;;;;;;;;;;;24.70;77.20;;;;;;5039649;28;20098;-67
2021/11/28 11:14:59;;;;;;;6.70;2.80;;;24.70;76.80;;;;;;5037464;28;19908;-70
2021/11/28 11:18:17;;;;;;;9.75;2.00;;;24.70;76.50;;;;;;5033423;28;20037;-68
2021/11/28 11:21:14;;;;;;;8.38;2.55;;;24.80;76.40;;;;;;5038010;28;20104;-68
2021/11/28 11:23:44;;;;;;;5.75;2.30;;;24.80;76.40;;;;;;5036007;28;20021;-66
2021/11/28 11:26:55;;;;;;;8.65;2.38;;;24.80;76.20;;;;;;5041674;28;20033;-70
2021/11/28 11:30:04;;;;;;;10.20;2.92;;;24.90;76.00;;;;;;5044302;28;20390;-67
2021/11/28 11:33:29;;;;;;;9.10;2.03;;;24.90;75.80;;;;;;5043120;28;20096;-74
2021/11/28 11:36:35;;;;;;;6.68;1.88;;;24.90;75.90;;;;;;5042490;28;20119;-67
2021/11/28 11:39:22;;;;;;;;;;;24.90;75.80;;;;;;5043840;28;20018;-68
2021/11/28 11:42:28;;;;;;;8.32;2.33;;;25.00;75.80;;;;;;5041652;28;19905;-69
2021/11/28 11:44:56;;;;;;;9.10;2.60;;;24.90;75.70;;;;;;5039961;28;20175;-68
2021/11/28 11:47:24;;;;;;;7.90;2.75;;;25.00;75.60;;;;;;5040251;28;20089;-70
2021/11/28 11:50:32;;;;;;;12.23;3.25;;;25.00;75.50;;;;;;5025487;28;20071;-67
2021/11/28 11:53:40;;;;;;;6.90;2.72;;;25.00;75.20;;;;;;5039220;28;20025;-72
2021/11/28 11:56:25;;;;;;;;;;;25.00;75.10;;;;;;5040690;28;20725;-71
2021/11/28 11:59:34;;;;;;;6.53;2.67;;;25.00;75.00;;;;;;5041268;28;19912;-71
2021/11/28 12:02:53;;;;;;;7.55;2.58;;;25.10;74.80;;;;;;5042890;28;20025;-71
2021/11/28 12:05:26;;;;;;;8.70;2.28;;;25.10;74.20;;;;;;5037641;28;20048;-69
2021/11/28 12:08:25;;;;;;;10.65;1.80;;;25.20;74.00;;;;;;5040212;28;20056;-69
2021/11/28 12:11:13;;;;;;;8.90;2.45;;;25.10;73.90;;;;;;5038258;28;20376;-68
2021/11/28 12:13:40;;;;;;;6.18;2.22;;;25.20;73.90;;;;;;5036652;28;20026;-71
2021/11/28 12:16:47;;;;;;;9.27;2.88;;;25.20;73.60;;;;;;5040632;28;20029;-72
2021/11/28 12:19:37;;;;;;;5.85;2.30;;;25.20;73.60;;;;;;5041374;28;20055;-72
2021/11/28 12:22:24;;;;;;;18.92;6.88;;;25.20;73.60;;;;;;5043546;28;20433;-73
2021/11/28 12:25:25;;;;;;;20.25;9.75;;;25.20;73.30;;;;;;5039568;28;20041;-69
2021/11/28 12:27:53;;;;;;;20.10;10.60;;;25.30;73.40;;;;;;5042723;28;20476;-67
2021/11/28 12:30:34;;;;;;;16.10;7.03;;;25.40;73.20;;;;;;5038393;28;20025;-68
2021/11/28 12:33:00;;;;;;;11.27;5.40;;;25.40;72.80;;;;;;5046000;28;20047;-72
2021/11/28 12:35:58;;;;;;;14.07;4.90;;;25.40;72.70;;;;;;5045352;28;20446;-70
2021/11/28 12:38:52;;;;;;;17.15;5.72;;;25.40;72.30;;;;;;5034541;28;20126;-74
2021/11/28 12:41:48;;;;;;;12.70;4.10;;;25.50;72.30;;;;;;5035943;28;20029;-68
2021/11/28 12:44:29;;;;;;;14.40;4.00;;;25.60;71.90;;;;;;5028979;28;20053;-67
2021/11/28 12:46:58;;;;;;;14.13;2.92;;;25.60;71.40;;;;;;5041834;28;20036;-71
2021/11/28 12:49:52;;;;;;;12.02;4.13;;;25.60;71.00;;;;;;5039834;28;20100;-66
2021/11/28 12:52:47;;;;;;;10.55;3.20;;;25.70;71.40;;;;;;5038378;28;20032;-70
2021/11/28 12:55:24;;;;;;;9.18;2.47;;;25.70;71.10;;;;;;5041460;28;20063;-67
2021/11/28 12:57:59;;;;;;;7.10;2.47;;;25.70;71.00;;;;;;5026648;28;20033;-67
2021/11/28 13:00:58;;;;;;;11.02;2.90;;;25.70;70.90;;;;;;5038641;28;20030;-66
2021/11/28 13:03:29;;;;;;;9.60;2.95;;;25.80;70.80;;;;;;5025966;28;20049;-80
2021/11/28 13:06:28;;;;;;;7.90;3.15;;;25.80;70.80;;;;;;5024405;28;20037;-71
2021/11/28 13:08:55;;;;;;;10.48;3.42;;;25.80;70.70;;;;;;5035740;28;20022;-71
2021/11/28 13:11:28;;;;;;;7.15;2.00;;;25.90;70.60;;;;;;5035533;28;20017;-69
2021/11/28 13:14:00;;;;;;;8.27;2.78;;;25.90;70.50;;;;;;5037383;28;20082;-70
2021/11/28 13:16:33;;;;;;;8.63;3.05;;;25.90;70.50;;;;;;5037463;28;20108;-71
2021/11/28 13:19:02;;;;;;;6.53;2.30;;;25.90;70.30;;;;;;5037860;28;20672;-71
2021/11/28 13:21:32;;;;;;;8.02;2.50;;;25.80;70.30;;;;;;5037112;28;20099;-73
2021/11/28 13:24:27;;;;;;;8.98;2.97;;;25.80;70.30;;;;;;5023096;28;20194;-70
2021/11/28 13:26:55;;;;;;;15.13;3.90;;;25.70;70.20;;;;;;5034862;28;20025;-72
2021/11/28 13:29:25;;;;;;;11.35;4.05;;;25.60;70.40;;;;;;5041563;28;20506;-69
2021/11/28 13:32:02;;;;;;;10.13;3.17;;;25.50;70.50;;;;;;5038021;28;20067;-70
2021/11/28 13:34:33;;;;;;;11.93;3.80;;;25.50;70.60;;;;;;5037387;28;20072;-72
2021/11/28 13:36:59;;;;;;;15.00;3.67;;;25.40;70.80;;;;;;5040156;28;20029;-70
2021/11/28 13:39:27;;;;;;;11.35;3.40;;;25.40;70.90;;;;;;5039604;28;20017;-72
2021/11/28 13:41:55;;;;;;;12.02;3.63;;;25.40;71.10;;;;;;5026915;28;20108;-72